sensor_id;sensor_type;location;lat;lon;timestamp;temperature;humidity
27747;DHT22;15138;51.012;4.692;2023-08-21T00:01:31;21.70;99.90
27747;DHT22;15138;51.012;4.692;2023-08-21T00:03:59;21.70;99.90
27747;DHT22;15138;51.012;4.692;2023-08-21T00:06:28;21.60;99.90
27747;DHT22;15138;51.012;4.692;2023-08-21T00:08:56;21.60;99.90
27747;DHT22;15138;51.012;4.692;2023-08-21T00:11:24;21.60;99.90
27747;DHT22;15138;51.012;4.692;2023-08-21T00:13:54;21.50;99.90
27747;DHT22;15138;51.012;4.692;2023-08-21T00:16:22;21.50;99.90
27747;DHT22;15138;51.012;4.692;2023-08-21T00:18:50;21.40;99.90
27747;DHT22;15138;51.012;4.692;2023-08-21T00:21:19;21.40;99.90
27747;DHT22;15138;51.012;4.692;2023-08-21T00:23:47;21.40;99.90
27747;DHT22;15138;51.012;4.692;2023-08-21T00:26:15;21.40;99.90
27747;DHT22;15138;51.012;4.692;2023-08-21T00:28:43;21.30;99.90
27747;DHT22;15138;51.012;4.692;2023-08-21T00:31:13;21.30;99.90
27747;DHT22;15138;51.012;4.692;2023-08-21T00:33:41;21.20;99.90
27747;DHT22;15138;51.012;4.692;2023-08-21T00:36:09;21.20;99.90
27747;DHT22;15138;51.012;4.692;2023-08-21T00:38:37;21.20;99.90
27747;DHT22;15138;51.012;4.692;2023-08-21T00:41:07;21.20;99.90
27747;DHT22;15138;51.012;4.692;2023-08-21T00:43:35;21.20;99.90
27747;DHT22;15138;51.012;4.692;2023-08-21T00:46:03;21.30;99.90
27747;DHT22;15138;51.012;4.692;2023-08-21T00:48:33;21.20;99.90
27747;DHT22;15138;51.012;4.692;2023-08-21T00:51:05;21.10;99.90
27747;DHT22;15138;51.012;4.692;2023-08-21T00:53:34;21.10;99.90
27747;DHT22;15138;51.012;4.692;2023-08-21T00:56:03;21.00;99.90
27747;DHT22;15138;51.012;4.692;2023-08-21T00:58:31;21.10;99.90
27747;DHT22;15138;51.012;4.692;2023-08-21T01:00:59;21.00;99.90
27747;DHT22;15138;51.012;4.692;2023-08-21T01:03:28;21.60;1.00
27747;DHT22;15138;51.012;4.692;2023-08-21T01:05:57;20.90;99.90
27747;DHT22;15138;51.012;4.692;2023-08-21T01:11:04;20.90;99.90
27747;DHT22;15138;51.012;4.692;2023-08-21T01:13:42;20.90;99.90
27747;DHT22;15138;51.012;4.692;2023-08-21T01:16:13;20.90;99.90
27747;DHT22;15138;51.012;4.692;2023-08-21T01:18:43;20.90;99.90
27747;DHT22;15138;51.012;4.692;2023-08-21T01:21:14;20.90;99.90
27747;DHT22;15138;51.012;4.692;2023-08-21T01:23:44;20.90;99.90
27747;DHT22;15138;51.012;4.692;2023-08-21T01:26:13;20.90;99.90
27747;DHT22;15138;51.012;4.692;2023-08-21T01:28:41;20.90;99.90
27747;DHT22;15138;51.012;4.692;2023-08-21T01:31:14;20.90;99.90
27747;DHT22;15138;51.012;4.692;2023-08-21T01:33:45;20.70;99.90
27747;DHT22;15138;51.012;4.692;2023-08-21T01:36:15;20.80;99.90
27747;DHT22;15138;51.012;4.692;2023-08-21T01:38:45;20.90;1.00
27747;DHT22;15138;51.012;4.692;2023-08-21T01:43:43;20.70;99.90
27747;DHT22;15138;51.012;4.692;2023-08-21T01:46:11;20.70;99.90
27747;DHT22;15138;51.012;4.692;2023-08-21T01:48:40;20.70;99.90
27747;DHT22;15138;51.012;4.692;2023-08-21T01:51:08;20.70;99.90
27747;DHT22;15138;51.012;4.692;2023-08-21T01:53:36;20.60;99.90
27747;DHT22;15138;51.012;4.692;2023-08-21T01:56:06;20.60;99.90
27747;DHT22;15138;51.012;4.692;2023-08-21T01:58:34;20.50;99.90
27747;DHT22;15138;51.012;4.692;2023-08-21T02:01:02;20.50;99.90
27747;DHT22;15138;51.012;4.692;2023-08-21T02:03:31;20.50;99.90
27747;DHT22;15138;51.012;4.692;2023-08-21T02:06:00;20.50;99.90
27747;DHT22;15138;51.012;4.692;2023-08-21T02:08:31;20.40;99.90
27747;DHT22;15138;51.012;4.692;2023-08-21T02:11:00;20.40;99.90
27747;DHT22;15138;51.012;4.692;2023-08-21T02:13:29;20.30;99.90
27747;DHT22;15138;51.012;4.692;2023-08-21T02:16:00;20.40;1.00
27747;DHT22;15138;51.012;4.692;2023-08-21T02:18:28;20.30;99.90
27747;DHT22;15138;51.012;4.692;2023-08-21T02:25:54;20.20;99.90
27747;DHT22;15138;51.012;4.692;2023-08-21T02:28:22;20.30;99.90
27747;DHT22;15138;51.012;4.692;2023-08-21T02:30:51;20.20;99.90
27747;DHT22;15138;51.012;4.692;2023-08-21T02:33:19;20.20;99.90
27747;DHT22;15138;51.012;4.692;2023-08-21T02:35:48;20.30;99.90
27747;DHT22;15138;51.012;4.692;2023-08-21T03:03:05;20.10;99.90
27747;DHT22;15138;51.012;4.692;2023-08-21T03:05:34;20.00;99.90
27747;DHT22;15138;51.012;4.692;2023-08-21T03:08:03;20.00;99.90
27747;DHT22;15138;51.012;4.692;2023-08-21T03:13:00;19.80;99.90
27747;DHT22;15138;51.012;4.692;2023-08-21T03:15:29;19.90;99.90
27747;DHT22;15138;51.012;4.692;2023-08-21T03:17:57;19.80;99.90
27747;DHT22;15138;51.012;4.692;2023-08-21T03:20:26;19.80;99.90
27747;DHT22;15138;51.012;4.692;2023-08-21T03:22:56;19.70;99.90
27747;DHT22;15138;51.012;4.692;2023-08-21T03:25:24;19.70;99.90
27747;DHT22;15138;51.012;4.692;2023-08-21T03:27:52;19.70;99.90
27747;DHT22;15138;51.012;4.692;2023-08-21T03:30:20;19.70;99.90
27747;DHT22;15138;51.012;4.692;2023-08-21T03:32:49;19.60;99.90
27747;DHT22;15138;51.012;4.692;2023-08-21T03:35:17;19.60;99.90
27747;DHT22;15138;51.012;4.692;2023-08-21T03:37:45;19.60;99.90
27747;DHT22;15138;51.012;4.692;2023-08-21T03:40:15;19.60;99.90
27747;DHT22;15138;51.012;4.692;2023-08-21T03:42:43;19.40;1.00
27747;DHT22;15138;51.012;4.692;2023-08-21T03:45:20;19.60;1.00
27747;DHT22;15138;51.012;4.692;2023-08-21T03:47:48;19.50;99.90
27747;DHT22;15138;51.012;4.692;2023-08-21T03:50:17;19.60;99.90
27747;DHT22;15138;51.012;4.692;2023-08-21T03:52:45;19.50;99.90
27747;DHT22;15138;51.012;4.692;2023-08-21T03:55:14;19.50;99.90
27747;DHT22;15138;51.012;4.692;2023-08-21T03:57:43;19.50;99.90
27747;DHT22;15138;51.012;4.692;2023-08-21T04:00:12;19.60;1.00
27747;DHT22;15138;51.012;4.692;2023-08-21T04:02:40;19.50;99.90
27747;DHT22;15138;51.012;4.692;2023-08-21T04:05:08;19.50;99.90
27747;DHT22;15138;51.012;4.692;2023-08-21T04:07:37;19.50;99.90
27747;DHT22;15138;51.012;4.692;2023-08-21T04:10:06;19.50;99.90
27747;DHT22;15138;51.012;4.692;2023-08-21T04:12:36;19.40;99.90
27747;DHT22;15138;51.012;4.692;2023-08-21T04:15:05;19.30;99.90
27747;DHT22;15138;51.012;4.692;2023-08-21T04:17:34;19.30;99.90
27747;DHT22;15138;51.012;4.692;2023-08-21T04:20:06;19.30;99.90
27747;DHT22;15138;51.012;4.692;2023-08-21T04:22:34;19.20;99.90
27747;DHT22;15138;51.012;4.692;2023-08-21T04:25:04;19.20;99.90
27747;DHT22;15138;51.012;4.692;2023-08-21T04:27:33;19.10;99.90
27747;DHT22;15138;51.012;4.692;2023-08-21T04:30:04;19.20;99.90
27747;DHT22;15138;51.012;4.692;2023-08-21T04:32:32;19.10;99.90
27747;DHT22;15138;51.012;4.692;2023-08-21T04:35:00;19.10;99.90
27747;DHT22;15138;51.012;4.692;2023-08-21T04:37:28;19.10;99.90
27747;DHT22;15138;51.012;4.692;2023-08-21T04:39:57;19.10;99.90
27747;DHT22;15138;51.012;4.692;2023-08-21T04:42:25;19.00;99.90
27747;DHT22;15138;51.012;4.692;2023-08-21T04:44:53;19.00;1.00
27747;DHT22;15138;51.012;4.692;2023-08-21T04:47:24;19.10;1.00
27747;DHT22;15138;51.012;4.692;2023-08-21T04:49:54;19.00;99.90
27747;DHT22;15138;51.012;4.692;2023-08-21T04:52:23;19.10;1.00
27747;DHT22;15138;51.012;4.692;2023-08-21T04:54:52;18.90;99.90
27747;DHT22;15138;51.012;4.692;2023-08-21T04:57:21;18.80;99.90
27747;DHT22;15138;51.012;4.692;2023-08-21T04:59:49;18.80;99.90
27747;DHT22;15138;51.012;4.692;2023-08-21T05:02:17;18.80;99.90
27747;DHT22;15138;51.012;4.692;2023-08-21T05:04:47;18.80;99.90
27747;DHT22;15138;51.012;4.692;2023-08-21T05:07:15;18.80;99.90
27747;DHT22;15138;51.012;4.692;2023-08-21T05:09:43;18.80;99.90
27747;DHT22;15138;51.012;4.692;2023-08-21T05:12:11;18.80;99.90
27747;DHT22;15138;51.012;4.692;2023-08-21T05:14:39;18.80;99.90
27747;DHT22;15138;51.012;4.692;2023-08-21T05:17:07;18.80;99.90
27747;DHT22;15138;51.012;4.692;2023-08-21T05:19:36;18.80;99.90
27747;DHT22;15138;51.012;4.692;2023-08-21T05:22:05;18.80;99.90
27747;DHT22;15138;51.012;4.692;2023-08-21T05:24:34;18.80;99.90
27747;DHT22;15138;51.012;4.692;2023-08-21T05:27:02;18.80;99.90
27747;DHT22;15138;51.012;4.692;2023-08-21T05:29:31;18.80;99.90
27747;DHT22;15138;51.012;4.692;2023-08-21T05:31:59;18.90;99.90
27747;DHT22;15138;51.012;4.692;2023-08-21T05:34:27;18.90;99.90
27747;DHT22;15138;51.012;4.692;2023-08-21T05:36:55;18.90;99.90
27747;DHT22;15138;51.012;4.692;2023-08-21T05:39:25;18.90;99.90
27747;DHT22;15138;51.012;4.692;2023-08-21T05:41:53;19.00;99.90
27747;DHT22;15138;51.012;4.692;2023-08-21T05:44:21;19.00;99.90
27747;DHT22;15138;51.012;4.692;2023-08-21T05:46:49;19.10;99.90
27747;DHT22;15138;51.012;4.692;2023-08-21T05:49:17;19.10;99.90
27747;DHT22;15138;51.012;4.692;2023-08-21T05:51:46;19.10;99.90
27747;DHT22;15138;51.012;4.692;2023-08-21T05:54:14;19.10;99.90
27747;DHT22;15138;51.012;4.692;2023-08-21T05:56:43;19.20;99.90
27747;DHT22;15138;51.012;4.692;2023-08-21T05:59:12;19.30;1.00
27747;DHT22;15138;51.012;4.692;2023-08-21T06:01:40;19.30;1.00
27747;DHT22;15138;51.012;4.692;2023-08-21T06:04:08;19.40;1.00
27747;DHT22;15138;51.012;4.692;2023-08-21T06:06:36;19.50;1.00
27747;DHT22;15138;51.012;4.692;2023-08-21T06:09:04;19.50;1.00
27747;DHT22;15138;51.012;4.692;2023-08-21T06:11:34;19.60;1.00
27747;DHT22;15138;51.012;4.692;2023-08-21T06:14:04;19.70;1.00
27747;DHT22;15138;51.012;4.692;2023-08-21T06:16:32;19.80;1.00
27747;DHT22;15138;51.012;4.692;2023-08-21T06:19:00;20.00;1.00
27747;DHT22;15138;51.012;4.692;2023-08-21T06:21:28;20.10;1.00
27747;DHT22;15138;51.012;4.692;2023-08-21T06:23:57;20.30;1.00
27747;DHT22;15138;51.012;4.692;2023-08-21T06:26:25;20.40;1.00
27747;DHT22;15138;51.012;4.692;2023-08-21T06:28:53;20.50;1.00
27747;DHT22;15138;51.012;4.692;2023-08-21T06:31:22;20.70;1.00
27747;DHT22;15138;51.012;4.692;2023-08-21T06:33:51;20.80;1.00
27747;DHT22;15138;51.012;4.692;2023-08-21T06:36:19;21.00;1.00
27747;DHT22;15138;51.012;4.692;2023-08-21T06:38:47;21.10;1.00
27747;DHT22;15138;51.012;4.692;2023-08-21T06:41:15;21.30;1.00
27747;DHT22;15138;51.012;4.692;2023-08-21T06:43:43;21.40;1.00
27747;DHT22;15138;51.012;4.692;2023-08-21T06:46:12;21.60;1.00
27747;DHT22;15138;51.012;4.692;2023-08-21T06:48:42;21.80;1.00
27747;DHT22;15138;51.012;4.692;2023-08-21T06:51:11;21.90;1.00
27747;DHT22;15138;51.012;4.692;2023-08-21T06:53:43;22.10;1.00
27747;DHT22;15138;51.012;4.692;2023-08-21T06:56:11;22.30;1.00
27747;DHT22;15138;51.012;4.692;2023-08-21T06:58:39;22.40;99.90
27747;DHT22;15138;51.012;4.692;2023-08-21T07:01:07;22.50;99.90
27747;DHT22;15138;51.012;4.692;2023-08-21T07:03:36;22.70;99.90
27747;DHT22;15138;51.012;4.692;2023-08-21T07:06:05;22.70;99.90
27747;DHT22;15138;51.012;4.692;2023-08-21T07:08:33;23.10;99.90
27747;DHT22;15138;51.012;4.692;2023-08-21T07:11:02;23.30;99.90
27747;DHT22;15138;51.012;4.692;2023-08-21T07:13:31;23.60;99.90
27747;DHT22;15138;51.012;4.692;2023-08-21T07:16:00;23.80;99.90
27747;DHT22;15138;51.012;4.692;2023-08-21T07:18:31;23.90;99.90
27747;DHT22;15138;51.012;4.692;2023-08-21T07:21:00;24.20;99.90
27747;DHT22;15138;51.012;4.692;2023-08-21T07:23:29;24.40;99.90
27747;DHT22;15138;51.012;4.692;2023-08-21T07:25:58;24.70;99.90
27747;DHT22;15138;51.012;4.692;2023-08-21T07:28:26;24.80;99.90
27747;DHT22;15138;51.012;4.692;2023-08-21T07:30:55;24.90;99.90
27747;DHT22;15138;51.012;4.692;2023-08-21T07:33:23;25.10;99.90
27747;DHT22;15138;51.012;4.692;2023-08-21T07:35:59;25.40;99.90
27747;DHT22;15138;51.012;4.692;2023-08-21T07:38:28;25.60;99.90
27747;DHT22;15138;51.012;4.692;2023-08-21T07:41:07;25.80;99.90
27747;DHT22;15138;51.012;4.692;2023-08-21T07:43:37;26.10;99.90
27747;DHT22;15138;51.012;4.692;2023-08-21T07:46:05;25.90;99.90
27747;DHT22;15138;51.012;4.692;2023-08-21T07:48:35;26.00;99.90
27747;DHT22;15138;51.012;4.692;2023-08-21T07:51:03;26.40;99.90
27747;DHT22;15138;51.012;4.692;2023-08-21T07:53:33;26.60;99.90
27747;DHT22;15138;51.012;4.692;2023-08-21T07:56:01;27.00;99.90
27747;DHT22;15138;51.012;4.692;2023-08-21T07:58:30;27.20;99.90
27747;DHT22;15138;51.012;4.692;2023-08-21T08:00:59;27.40;99.90
27747;DHT22;15138;51.012;4.692;2023-08-21T08:03:28;27.60;99.90
27747;DHT22;15138;51.012;4.692;2023-08-21T08:05:56;27.80;99.90
27747;DHT22;15138;51.012;4.692;2023-08-21T08:08:24;28.10;99.90
27747;DHT22;15138;51.012;4.692;2023-08-21T08:10:54;28.40;99.90
27747;DHT22;15138;51.012;4.692;2023-08-21T08:13:22;28.80;99.90
27747;DHT22;15138;51.012;4.692;2023-08-21T08:15:50;28.90;99.90
27747;DHT22;15138;51.012;4.692;2023-08-21T08:18:19;29.10;99.90
27747;DHT22;15138;51.012;4.692;2023-08-21T08:20:47;29.40;99.90
27747;DHT22;15138;51.012;4.692;2023-08-21T08:23:15;29.50;99.90
27747;DHT22;15138;51.012;4.692;2023-08-21T08:25:47;29.70;1.00
27747;DHT22;15138;51.012;4.692;2023-08-21T08:28:17;29.80;1.00
27747;DHT22;15138;51.012;4.692;2023-08-21T08:30:45;30.20;97.60
27747;DHT22;15138;51.012;4.692;2023-08-21T08:33:14;30.30;99.90
27747;DHT22;15138;51.012;4.692;2023-08-21T08:35:42;30.50;99.90
27747;DHT22;15138;51.012;4.692;2023-08-21T08:38:10;30.70;99.90
27747;DHT22;15138;51.012;4.692;2023-08-21T08:40:45;30.50;10.90
27747;DHT22;15138;51.012;4.692;2023-08-21T08:43:14;30.80;1.00
27747;DHT22;15138;51.012;4.692;2023-08-21T08:45:45;31.20;1.00
27747;DHT22;15138;51.012;4.692;2023-08-21T08:48:16;31.50;1.00
27747;DHT22;15138;51.012;4.692;2023-08-21T08:50:45;31.70;1.00
27747;DHT22;15138;51.012;4.692;2023-08-21T08:53:14;32.00;1.00
27747;DHT22;15138;51.012;4.692;2023-08-21T08:55:43;32.40;1.00
27747;DHT22;15138;51.012;4.692;2023-08-21T08:58:12;32.40;1.00
27747;DHT22;15138;51.012;4.692;2023-08-21T09:00:40;32.50;99.90
27747;DHT22;15138;51.012;4.692;2023-08-21T09:03:10;32.40;99.90
27747;DHT22;15138;51.012;4.692;2023-08-21T09:05:39;32.60;99.90
27747;DHT22;15138;51.012;4.692;2023-08-21T09:08:11;32.50;99.90
27747;DHT22;15138;51.012;4.692;2023-08-21T09:10:41;32.80;99.90
27747;DHT22;15138;51.012;4.692;2023-08-21T09:13:12;32.40;99.90
27747;DHT22;15138;51.012;4.692;2023-08-21T09:15:42;32.80;99.90
27747;DHT22;15138;51.012;4.692;2023-08-21T09:18:12;33.20;99.90
27747;DHT22;15138;51.012;4.692;2023-08-21T09:20:42;33.60;99.90
27747;DHT22;15138;51.012;4.692;2023-08-21T09:23:14;33.60;99.90
27747;DHT22;15138;51.012;4.692;2023-08-21T09:25:44;33.90;99.90
27747;DHT22;15138;51.012;4.692;2023-08-21T09:28:14;34.10;99.90
27747;DHT22;15138;51.012;4.692;2023-08-21T09:30:50;34.40;99.90
27747;DHT22;15138;51.012;4.692;2023-08-21T09:33:20;34.90;99.90
27747;DHT22;15138;51.012;4.692;2023-08-21T09:35:52;34.80;99.90
27747;DHT22;15138;51.012;4.692;2023-08-21T09:38:20;34.30;99.90
27747;DHT22;15138;51.012;4.692;2023-08-21T09:40:52;34.90;99.90
27747;DHT22;15138;51.012;4.692;2023-08-21T09:43:22;35.30;99.90
27747;DHT22;15138;51.012;4.692;2023-08-21T09:45:55;35.80;99.90
27747;DHT22;15138;51.012;4.692;2023-08-21T09:48:26;35.90;99.90
27747;DHT22;15138;51.012;4.692;2023-08-21T09:50:55;36.10;98.20
27747;DHT22;15138;51.012;4.692;2023-08-21T09:53:23;36.10;96.80
27747;DHT22;15138;51.012;4.692;2023-08-21T09:55:53;36.30;90.40
27747;DHT22;15138;51.012;4.692;2023-08-21T09:58:22;36.40;99.90
27747;DHT22;15138;51.012;4.692;2023-08-21T10:00:52;36.60;96.00
27747;DHT22;15138;51.012;4.692;2023-08-21T10:03:26;36.60;91.70
27747;DHT22;15138;51.012;4.692;2023-08-21T10:05:56;36.90;93.30
27747;DHT22;15138;51.012;4.692;2023-08-21T10:08:26;37.00;75.40
27747;DHT22;15138;51.012;4.692;2023-08-21T10:10:56;36.40;82.50
27747;DHT22;15138;51.012;4.692;2023-08-21T10:13:30;36.30;63.00
27747;DHT22;15138;51.012;4.692;2023-08-21T10:15:59;36.90;82.70
27747;DHT22;15138;51.012;4.692;2023-08-21T10:18:31;36.90;84.20
27747;DHT22;15138;51.012;4.692;2023-08-21T10:21:11;37.20;78.40
27747;DHT22;15138;51.012;4.692;2023-08-21T10:23:40;36.70;75.20
27747;DHT22;15138;51.012;4.692;2023-08-21T10:26:11;35.90;60.40
27747;DHT22;15138;51.012;4.692;2023-08-21T10:28:45;36.00;68.30
27747;DHT22;15138;51.012;4.692;2023-08-21T10:31:35;35.70;64.90
27747;DHT22;15138;51.012;4.692;2023-08-21T10:34:05;35.80;60.80
27747;DHT22;15138;51.012;4.692;2023-08-21T10:36:38;36.40;74.30
27747;DHT22;15138;51.012;4.692;2023-08-21T10:39:13;36.70;74.10
27747;DHT22;15138;51.012;4.692;2023-08-21T10:41:53;37.30;72.90
27747;DHT22;15138;51.012;4.692;2023-08-21T10:44:46;37.30;63.10
27747;DHT22;15138;51.012;4.692;2023-08-21T10:47:20;36.40;49.30
27747;DHT22;15138;51.012;4.692;2023-08-21T10:49:52;36.20;57.60
27747;DHT22;15138;51.012;4.692;2023-08-21T10:52:23;36.10;70.60
27747;DHT22;15138;51.012;4.692;2023-08-21T10:54:53;36.50;58.10
27747;DHT22;15138;51.012;4.692;2023-08-21T10:57:22;37.20;57.70
27747;DHT22;15138;51.012;4.692;2023-08-21T10:59:52;37.50;52.00
27747;DHT22;15138;51.012;4.692;2023-08-21T11:02:21;38.00;45.90
27747;DHT22;15138;51.012;4.692;2023-08-21T11:04:51;37.70;44.20
27747;DHT22;15138;51.012;4.692;2023-08-21T11:07:20;38.10;44.30
27747;DHT22;15138;51.012;4.692;2023-08-21T11:09:49;37.90;43.90
27747;DHT22;15138;51.012;4.692;2023-08-21T11:12:20;37.40;30.00
27747;DHT22;15138;51.012;4.692;2023-08-21T11:14:49;37.50;41.10
27747;DHT22;15138;51.012;4.692;2023-08-21T11:17:18;37.60;36.60
27747;DHT22;15138;51.012;4.692;2023-08-21T11:19:46;38.10;35.10
27747;DHT22;15138;51.012;4.692;2023-08-21T11:22:18;38.50;36.70
27747;DHT22;15138;51.012;4.692;2023-08-21T11:24:47;38.30;35.10
27747;DHT22;15138;51.012;4.692;2023-08-21T11:27:18;38.70;34.80
27747;DHT22;15138;51.012;4.692;2023-08-21T11:30:00;38.90;29.20
27747;DHT22;15138;51.012;4.692;2023-08-21T11:32:30;38.90;23.10
27747;DHT22;15138;51.012;4.692;2023-08-21T11:34:58;39.20;28.00
27747;DHT22;15138;51.012;4.692;2023-08-21T11:37:27;39.10;22.50
27747;DHT22;15138;51.012;4.692;2023-08-21T11:39:57;39.40;23.40
27747;DHT22;15138;51.012;4.692;2023-08-21T11:42:29;39.00;19.60
27747;DHT22;15138;51.012;4.692;2023-08-21T11:45:00;39.60;24.10
27747;DHT22;15138;51.012;4.692;2023-08-21T11:47:31;40.10;17.30
27747;DHT22;15138;51.012;4.692;2023-08-21T11:50:02;39.70;16.80
27747;DHT22;15138;51.012;4.692;2023-08-21T11:52:33;39.50;19.00
27747;DHT22;15138;51.012;4.692;2023-08-21T11:55:08;39.00;13.80
27747;DHT22;15138;51.012;4.692;2023-08-21T11:57:46;38.70;15.10
27747;DHT22;15138;51.012;4.692;2023-08-21T12:00:15;37.90;8.00
27747;DHT22;15138;51.012;4.692;2023-08-21T12:02:54;37.50;12.10
27747;DHT22;15138;51.012;4.692;2023-08-21T12:05:23;37.40;17.70
27747;DHT22;15138;51.012;4.692;2023-08-21T12:07:53;37.90;13.60
27747;DHT22;15138;51.012;4.692;2023-08-21T12:10:24;38.40;17.70
27747;DHT22;15138;51.012;4.692;2023-08-21T12:12:53;38.60;13.90
27747;DHT22;15138;51.012;4.692;2023-08-21T12:15:21;38.40;16.40
27747;DHT22;15138;51.012;4.692;2023-08-21T12:17:50;38.60;18.10
27747;DHT22;15138;51.012;4.692;2023-08-21T12:20:18;39.00;17.90
27747;DHT22;15138;51.012;4.692;2023-08-21T12:22:46;39.40;14.40
27747;DHT22;15138;51.012;4.692;2023-08-21T12:25:16;39.50;5.90
27747;DHT22;15138;51.012;4.692;2023-08-21T12:27:45;39.60;6.60
27747;DHT22;15138;51.012;4.692;2023-08-21T12:30:26;39.20;2.10
27747;DHT22;15138;51.012;4.692;2023-08-21T12:38:13;39.00;1.00
27747;DHT22;15138;51.012;4.692;2023-08-21T12:45:40;38.40;1.00
27747;DHT22;15138;51.012;4.692;2023-08-21T12:48:08;38.40;99.90
27747;DHT22;15138;51.012;4.692;2023-08-21T12:50:36;38.60;99.90
27747;DHT22;15138;51.012;4.692;2023-08-21T12:53:05;38.30;99.90
27747;DHT22;15138;51.012;4.692;2023-08-21T12:55:33;38.60;99.90
27747;DHT22;15138;51.012;4.692;2023-08-21T12:58:03;38.10;99.90
27747;DHT22;15138;51.012;4.692;2023-08-21T13:00:31;37.40;99.90
27747;DHT22;15138;51.012;4.692;2023-08-21T13:03:00;37.20;99.90
27747;DHT22;15138;51.012;4.692;2023-08-21T13:05:30;36.80;99.90
27747;DHT22;15138;51.012;4.692;2023-08-21T13:07:58;36.70;99.90
27747;DHT22;15138;51.012;4.692;2023-08-21T13:10:26;36.40;99.90
27747;DHT22;15138;51.012;4.692;2023-08-21T13:12:54;37.00;99.90
27747;DHT22;15138;51.012;4.692;2023-08-21T13:15:24;37.60;99.90
27747;DHT22;15138;51.012;4.692;2023-08-21T13:17:52;37.20;2.50
27747;DHT22;15138;51.012;4.692;2023-08-21T13:20:20;37.00;1.30
27747;DHT22;15138;51.012;4.692;2023-08-21T13:22:50;36.30;1.00
27747;DHT22;15138;51.012;4.692;2023-08-21T13:25:21;36.80;1.00
27747;DHT22;15138;51.012;4.692;2023-08-21T13:27:50;36.80;1.00
27747;DHT22;15138;51.012;4.692;2023-08-21T13:30:18;36.80;1.00
27747;DHT22;15138;51.012;4.692;2023-08-21T13:32:48;37.40;2.30
27747;DHT22;15138;51.012;4.692;2023-08-21T13:35:17;37.60;1.00
27747;DHT22;15138;51.012;4.692;2023-08-21T13:37:46;37.80;1.00
27747;DHT22;15138;51.012;4.692;2023-08-21T13:40:14;38.00;1.00
27747;DHT22;15138;51.012;4.692;2023-08-21T13:42:44;37.40;1.00
27747;DHT22;15138;51.012;4.692;2023-08-21T13:45:14;37.50;1.00
27747;DHT22;15138;51.012;4.692;2023-08-21T13:47:43;37.90;1.00
27747;DHT22;15138;51.012;4.692;2023-08-21T13:50:15;37.90;1.00
27747;DHT22;15138;51.012;4.692;2023-08-21T13:52:45;38.30;1.00
27747;DHT22;15138;51.012;4.692;2023-08-21T13:55:15;38.40;1.00
27747;DHT22;15138;51.012;4.692;2023-08-21T14:00:13;38.70;1.00
27747;DHT22;15138;51.012;4.692;2023-08-21T14:02:45;38.10;1.00
27747;DHT22;15138;51.012;4.692;2023-08-21T14:05:14;38.10;1.00
27747;DHT22;15138;51.012;4.692;2023-08-21T14:07:42;37.90;1.00
27747;DHT22;15138;51.012;4.692;2023-08-21T14:10:11;37.90;1.00
27747;DHT22;15138;51.012;4.692;2023-08-21T14:12:41;38.10;1.00
27747;DHT22;15138;51.012;4.692;2023-08-21T14:15:10;38.20;1.00
27747;DHT22;15138;51.012;4.692;2023-08-21T14:17:38;38.10;1.00
27747;DHT22;15138;51.012;4.692;2023-08-21T14:20:08;38.20;1.00
27747;DHT22;15138;51.012;4.692;2023-08-21T14:22:37;38.20;1.00
27747;DHT22;15138;51.012;4.692;2023-08-21T14:25:06;38.10;1.00
27747;DHT22;15138;51.012;4.692;2023-08-21T14:27:34;37.90;1.00
27747;DHT22;15138;51.012;4.692;2023-08-21T14:30:04;37.80;1.00
27747;DHT22;15138;51.012;4.692;2023-08-21T14:32:34;37.00;1.00
27747;DHT22;15138;51.012;4.692;2023-08-21T14:35:05;36.50;1.00
27747;DHT22;15138;51.012;4.692;2023-08-21T14:37:34;36.80;1.00
27747;DHT22;15138;51.012;4.692;2023-08-21T14:40:05;37.00;1.00
27747;DHT22;15138;51.012;4.692;2023-08-21T14:42:35;37.00;1.00
27747;DHT22;15138;51.012;4.692;2023-08-21T14:45:05;36.90;1.00
27747;DHT22;15138;51.012;4.692;2023-08-21T14:47:33;37.00;1.00
27747;DHT22;15138;51.012;4.692;2023-08-21T14:50:03;37.00;1.00
27747;DHT22;15138;51.012;4.692;2023-08-21T14:52:31;36.80;1.00
27747;DHT22;15138;51.012;4.692;2023-08-21T14:54:59;36.80;1.00
27747;DHT22;15138;51.012;4.692;2023-08-21T14:57:29;36.70;1.00
27747;DHT22;15138;51.012;4.692;2023-08-21T14:59:57;36.20;1.00
27747;DHT22;15138;51.012;4.692;2023-08-21T15:02:25;36.20;1.00
27747;DHT22;15138;51.012;4.692;2023-08-21T15:04:53;36.30;1.00
27747;DHT22;15138;51.012;4.692;2023-08-21T15:07:22;36.30;1.00
27747;DHT22;15138;51.012;4.692;2023-08-21T15:09:50;36.10;1.00
27747;DHT22;15138;51.012;4.692;2023-08-21T15:12:18;36.20;1.00
27747;DHT22;15138;51.012;4.692;2023-08-21T15:14:47;35.90;1.00
27747;DHT22;15138;51.012;4.692;2023-08-21T15:17:15;35.70;1.00
27747;DHT22;15138;51.012;4.692;2023-08-21T15:19:47;35.80;1.00
27747;DHT22;15138;51.012;4.692;2023-08-21T15:22:16;35.80;1.00
27747;DHT22;15138;51.012;4.692;2023-08-21T15:24:44;35.90;1.00
27747;DHT22;15138;51.012;4.692;2023-08-21T15:27:12;35.80;1.00
27747;DHT22;15138;51.012;4.692;2023-08-21T15:29:40;35.90;1.00
27747;DHT22;15138;51.012;4.692;2023-08-21T15:32:10;35.80;1.00
27747;DHT22;15138;51.012;4.692;2023-08-21T15:34:38;35.40;1.00
27747;DHT22;15138;51.012;4.692;2023-08-21T15:37:06;35.40;1.00
27747;DHT22;15138;51.012;4.692;2023-08-21T15:39:35;35.40;1.00
27747;DHT22;15138;51.012;4.692;2023-08-21T15:42:04;35.50;1.00
27747;DHT22;15138;51.012;4.692;2023-08-21T15:44:32;35.40;1.00
27747;DHT22;15138;51.012;4.692;2023-08-21T15:47:00;35.30;1.00
27747;DHT22;15138;51.012;4.692;2023-08-21T15:49:50;35.10;1.00
27747;DHT22;15138;51.012;4.692;2023-08-21T15:52:19;35.20;1.00
27747;DHT22;15138;51.012;4.692;2023-08-21T15:54:47;35.00;1.00
27747;DHT22;15138;51.012;4.692;2023-08-21T15:57:18;34.90;1.00
27747;DHT22;15138;51.012;4.692;2023-08-21T15:59:47;34.70;1.00
27747;DHT22;15138;51.012;4.692;2023-08-21T16:02:15;34.60;1.00
27747;DHT22;15138;51.012;4.692;2023-08-21T16:04:43;34.60;1.00
27747;DHT22;15138;51.012;4.692;2023-08-21T16:07:13;34.60;1.00
27747;DHT22;15138;51.012;4.692;2023-08-21T16:09:42;34.50;1.00
27747;DHT22;15138;51.012;4.692;2023-08-21T16:12:10;34.50;1.00
27747;DHT22;15138;51.012;4.692;2023-08-21T16:14:38;34.20;1.00
27747;DHT22;15138;51.012;4.692;2023-08-21T16:17:07;34.10;1.00
27747;DHT22;15138;51.012;4.692;2023-08-21T16:19:35;34.10;1.00
27747;DHT22;15138;51.012;4.692;2023-08-21T16:22:04;33.70;1.00
27747;DHT22;15138;51.012;4.692;2023-08-21T16:24:33;33.70;1.00
27747;DHT22;15138;51.012;4.692;2023-08-21T16:27:01;33.60;1.00
27747;DHT22;15138;51.012;4.692;2023-08-21T16:29:30;33.60;1.00
27747;DHT22;15138;51.012;4.692;2023-08-21T16:31:59;33.60;1.00
27747;DHT22;15138;51.012;4.692;2023-08-21T16:34:27;33.60;1.00
27747;DHT22;15138;51.012;4.692;2023-08-21T16:36:55;32.10;1.00
27747;DHT22;15138;51.012;4.692;2023-08-21T16:39:23;33.40;1.00